Time;durP1;ratioP1;P1;durP2;ratioP2;P2;SDS_P1;SDS_P2;PMS_P1;PMS_P2;Temp;Humidity;BMP_temperature;BMP_pressure;BME280_temperature;BME280_humidity;BME280_pressure;Samples;Min_cycle;Max_cycle;Signal;HPM_P1;HPM_P2
2023/01/21 00:01:43;;;;;;;27.17;13.33;;;;;;;-0.47;100.00;101355.94;5009512;28;20113;-75
2023/01/21 00:04:09;;;;;;;22.37;11.77;;;;;;;-0.62;100.00;101352.53;5009169;28;20428;-75
2023/01/21 00:06:35;;;;;;;25.47;11.73;;;;;;;-0.65;100.00;101349.78;5005231;28;20519;-75
2023/01/21 00:09:01;;;;;;;25.47;12.60;;;;;;;-0.70;100.00;101354.72;5005864;28;20033;-75
2023/01/21 00:11:27;;;;;;;28.40;12.73;;;;;;;-0.68;100.00;101350.53;5008470;28;20421;-75
2023/01/21 00:13:52;;;;;;;28.43;12.30;;;;;;;-0.70;100.00;101362.50;5003880;28;20030;-75
2023/01/21 00:16:17;;;;;;;25.73;13.63;;;;;;;-0.68;100.00;101357.41;5006674;28;20038;-75
2023/01/21 00:18:43;;;;;;;28.17;13.13;;;;;;;-0.64;100.00;101364.53;5007181;28;20077;-75
2023/01/21 00:21:08;;;;;;;26.40;13.20;;;;;;;-0.70;100.00;101366.81;5005514;28;20081;-75
2023/01/21 00:23:34;;;;;;;26.10;13.63;;;;;;;-0.67;100.00;101367.84;5005112;28;20049;-75
2023/01/21 00:26:00;;;;;;;24.13;11.50;;;;;;;-0.63;100.00;101374.06;5002599;28;20093;-75
2023/01/21 00:28:27;;;;;;;23.63;13.77;;;;;;;-0.59;100.00;101376.03;5006357;28;20381;-75
2023/01/21 00:30:57;;;;;;;27.30;12.53;;;;;;;-0.43;100.00;101376.84;5006841;28;20521;-75
2023/01/21 00:33:22;;;;;;;28.63;11.97;;;;;;;-0.40;100.00;101376.97;5005600;28;20069;-75
2023/01/21 00:35:59;;;;;;;21.97;11.57;;;;;;;-0.43;100.00;101387.19;5006192;28;20065;-75
2023/01/21 00:38:24;;;;;;;22.57;11.83;;;;;;;-0.44;100.00;101378.53;5000860;28;20078;-75
2023/01/21 00:40:50;;;;;;;22.57;12.47;;;;;;;-0.51;100.00;101382.50;5005603;28;20061;-75
2023/01/21 00:43:15;;;;;;;27.27;13.33;;;;;;;-0.54;100.00;101384.94;5004276;28;20558;-75
2023/01/21 00:45:40;;;;;;;23.67;12.60;;;;;;;-0.51;100.00;101389.41;5004089;28;20396;-75
2023/01/21 00:48:06;;;;;;;25.23;11.80;;;;;;;-0.48;100.00;101384.38;5007315;28;20400;-75
2023/01/21 00:50:31;;;;;;;25.27;12.17;;;;;;;-0.37;100.00;101383.22;5003126;28;20497;-75
2023/01/21 00:52:56;;;;;;;24.27;12.33;;;;;;;-0.20;100.00;101388.41;5006140;28;20508;-75
2023/01/21 00:55:22;;;;;;;26.50;13.27;;;;;;;-0.22;100.00;101383.13;5005538;28;20054;-75
2023/01/21 00:57:47;;;;;;;28.47;13.07;;;;;;;-0.28;100.00;101382.81;5003699;28;20489;-75
2023/01/21 01:00:13;;;;;;;30.53;13.93;;;;;;;-0.33;100.00;101386.88;5008016;28;20030;-75
2023/01/21 01:02:39;;;;;;;30.13;12.90;;;;;;;-0.45;100.00;101392.31;5003952;28;20049;-75
2023/01/21 01:05:07;;;;;;;26.57;12.77;;;;;;;-0.55;100.00;101390.03;5005256;28;20034;-75
2023/01/21 01:07:32;;;;;;;31.57;14.67;;;;;;;-0.55;100.00;101388.34;5005747;28;20080;-75
2023/01/21 01:09:58;;;;;;;29.37;13.20;;;;;;;-0.62;100.00;101386.25;5009773;28;20496;-75
2023/01/21 01:12:23;;;;;;;36.97;13.87;;;;;;;-0.54;100.00;101390.13;5004937;28;20109;-75
2023/01/21 01:14:48;;;;;;;28.40;13.67;;;;;;;-0.46;100.00;101391.41;5004067;28;20084;-75
2023/01/21 01:17:14;;;;;;;28.13;13.80;;;;;;;-0.48;100.00;101392.16;5003290;28;20890;-75
2023/01/21 01:19:39;;;;;;;29.70;12.70;;;;;;;-0.52;100.00;101391.09;5004909;28;20453;-75
2023/01/21 01:22:04;;;;;;;32.03;13.63;;;;;;;-0.56;100.00;101402.13;5005599;28;20390;-75
2023/01/21 01:24:30;;;;;;;32.43;14.77;;;;;;;-0.68;100.00;101394.59;5005797;28;20440;-75
2023/01/21 01:26:55;;;;;;;37.20;15.53;;;;;;;-0.76;100.00;101401.06;5005203;28;20034;-75
2023/01/21 01:29:20;;;;;;;30.50;12.37;;;;;;;-0.75;100.00;101404.56;5004952;28;20033;-75
2023/01/21 01:31:46;;;;;;;30.10;12.83;;;;;;;-0.76;100.00;101414.03;5004734;28;20112;-75
2023/01/21 01:34:11;;;;;;;29.20;13.27;;;;;;;-0.77;100.00;101404.47;5004309;28;20030;-75
2023/01/21 01:36:36;;;;;;;36.70;13.43;;;;;;;-0.76;100.00;101405.34;5004609;28;20124;-75
2023/01/21 01:39:02;;;;;;;25.67;11.03;;;;;;;-0.74;100.00;101406.31;5001982;28;20034;-75
2023/01/21 01:41:30;;;;;;;28.43;10.90;;;;;;;-0.64;100.00;101408.59;5002852;28;20130;-75
2023/01/21 01:43:59;;;;;;;25.33;10.30;;;;;;;-0.52;100.00;101413.56;5005676;28;20141;-75
2023/01/21 01:46:30;;;;;;;21.13;11.40;;;;;;;-0.37;100.00;101405.66;5003596;28;20056;-75
2023/01/21 01:49:05;;;;;;;20.47;10.47;;;;;;;-0.29;100.00;101413.06;5001821;28;20049;-75
2023/01/21 01:51:55;;;;;;;20.83;10.10;;;;;;;-0.25;100.00;101408.91;5003396;28;20080;-75
2023/01/21 01:54:30;;;;;;;26.47;11.07;;;;;;;-0.37;100.00;101419.53;5002294;28;20062;-75
2023/01/21 01:57:01;;;;;;;29.23;12.07;;;;;;;-0.42;100.00;101414.91;5004686;28;20044;-75
2023/01/21 01:59:28;;;;;;;25.83;11.63;;;;;;;-0.47;100.00;101417.28;5013057;28;20083;-75
2023/01/21 02:01:56;;;;;;;26.30;12.47;;;;;;;-0.46;100.00;101417.34;5005933;28;20079;-75
2023/01/21 02:04:26;;;;;;;24.97;12.73;;;;;;;-0.60;100.00;101423.53;5004197;28;20038;-75
2023/01/21 02:06:53;;;;;;;24.37;11.77;;;;;;;-0.70;100.00;101431.63;5000379;28;20034;-75
2023/01/21 02:09:19;;;;;;;23.13;12.63;;;;;;;-0.74;100.00;101422.75;5003038;28;20042;-75
2023/01/21 02:11:44;;;;;;;23.30;11.93;;;;;;;-0.62;100.00;101427.72;5004807;28;20034;-75
2023/01/21 02:14:09;;;;;;;27.77;13.00;;;;;;;-0.74;100.00;101427.06;5004723;28;20054;-75
2023/01/21 02:16:47;;;;;;;25.97;10.77;;;;;;;-0.86;100.00;101426.38;5001606;28;20034;-75
2023/01/21 02:19:41;;;;;;;24.70;11.27;;;;;;;-0.95;100.00;101427.69;5002311;28;20066;-75
2023/01/21 02:22:36;;;;;;;27.87;11.47;;;;;;;-0.99;100.00;101425.75;5002936;28;20181;-75
2023/01/21 02:25:35;;;;;;;21.00;10.30;;;;;;;-0.88;100.00;101426.31;5003605;28;20049;-75
2023/01/21 02:28:17;;;;;;;22.60;10.57;;;;;;;-0.74;100.00;101442.63;5001229;28;20393;-75
2023/01/21 02:30:51;;;;;;;17.93;9.50;;;;;;;-0.83;100.00;101432.66;5004866;28;20516;-75
2023/01/21 02:33:42;;;;;;;22.73;9.87;;;;;;;-0.95;100.00;101432.88;5004976;28;20112;-74
2023/01/21 02:36:25;;;;;;;20.93;9.53;;;;;;;-0.90;100.00;101430.53;5001271;28;20038;-75
2023/01/21 02:39:13;;;;;;;18.40;9.23;;;;;;;-0.93;100.00;101439.03;5005748;28;20448;-75
2023/01/21 02:41:58;;;;;;;20.03;8.63;;;;;;;-0.97;100.00;101449.13;5000592;28;20038;-74
2023/01/21 02:44:40;;;;;;;18.30;8.80;;;;;;;-0.89;100.00;101443.59;5000973;28;20501;-75
2023/01/21 02:47:27;;;;;;;16.63;9.13;;;;;;;-0.76;100.00;101441.63;5002355;28;20041;-75
2023/01/21 02:50:05;;;;;;;21.07;9.20;;;;;;;-0.86;100.00;101442.84;5003595;28;20053;-75
2023/01/21 02:52:31;;;;;;;18.43;8.97;;;;;;;-0.96;100.00;101450.94;5000976;28;20030;-75
2023/01/21 02:54:59;;;;;;;21.93;9.97;;;;;;;-0.98;100.00;101456.03;5002970;28;20044;-75
2023/01/21 02:57:40;;;;;;;19.90;10.03;;;;;;;-0.97;100.00;101444.88;5004037;28;20041;-75
2023/01/21 03:00:15;;;;;;;19.70;10.07;;;;;;;-0.95;100.00;101452.69;5004232;28;20500;-75
2023/01/21 03:03:10;;;;;;;17.10;9.23;;;;;;;-1.02;100.00;101447.97;5003251;28;20120;-75
2023/01/21 03:05:56;;;;;;;16.70;9.17;;;;;;;-1.11;100.00;101438.91;5002347;28;20049;-75
2023/01/21 03:08:29;;;;;;;20.10;10.40;;;;;;;-1.13;100.00;101445.72;5004138;28;20034;-75
2023/01/21 03:11:07;;;;;;;24.33;11.00;;;;;;;-1.04;100.00;101452.22;5001121;28;20125;-74
2023/01/21 03:19:17;;;;;;;19.77;8.87;;;;;;;-1.20;100.00;101451.34;5006441;28;20496;-72
2023/01/21 03:21:44;;;;;;;13.23;6.27;;;;;;;-1.25;100.00;101450.22;5000156;28;20685;-72
2023/01/21 03:24:13;;;;;;;15.13;6.37;;;;;;;-1.30;100.00;101453.34;5002062;28;20176;-72
2023/01/21 03:26:44;;;;;;;21.90;9.00;;;;;;;-1.37;100.00;101459.88;5001371;28;20127;-72
2023/01/21 03:29:17;;;;;;;21.93;8.20;;;;;;;-1.23;100.00;101458.03;5000424;28;20104;-72
2023/01/21 03:31:46;;;;;;;20.53;8.40;;;;;;;-1.21;100.00;101456.44;5001911;28;20034;-72
2023/01/21 03:34:15;;;;;;;19.50;7.33;;;;;;;-1.29;100.00;101465.47;5000568;28;20030;-72
2023/01/21 03:36:47;;;;;;;18.00;7.80;;;;;;;-1.47;100.00;101471.38;5005595;28;20038;-72
2023/01/21 03:39:45;;;;;;;19.70;9.50;;;;;;;-1.51;100.00;101469.44;5001830;28;20045;-72
2023/01/21 03:42:12;;;;;;;16.00;5.83;;;;;;;-1.51;100.00;101474.63;5002632;28;20500;-72
2023/01/21 03:44:38;;;;;;;21.47;8.47;;;;;;;-1.54;100.00;101469.28;5000016;28;20405;-73
2023/01/21 03:47:16;;;;;;;25.50;8.30;;;;;;;-1.45;100.00;101468.91;5002301;28;20034;-72
2023/01/21 03:50:04;;;;;;;25.73;10.37;;;;;;;-1.44;100.00;101471.59;5003048;28;20489;-73
2023/01/21 03:52:29;;;;;;;21.63;9.27;;;;;;;-1.39;100.00;101479.59;5002284;28;20040;-72
2023/01/21 03:54:55;;;;;;;25.63;11.23;;;;;;;-1.29;100.00;101475.84;5003812;28;20046;-73
2023/01/21 03:57:20;;;;;;;25.63;10.73;;;;;;;-1.33;100.00;101474.78;4999149;28;20038;-72
2023/01/21 03:59:46;;;;;;;24.57;10.27;;;;;;;-1.39;100.00;101477.00;5002644;28;20180;-73
2023/01/21 04:02:11;;;;;;;31.60;11.90;;;;;;;-1.52;100.00;101480.59;5000607;28;20026;-73
2023/01/21 04:04:36;;;;;;;31.47;8.73;;;;;;;-1.35;100.00;101477.28;5003428;28;20049;-72
2023/01/21 04:07:02;;;;;;;26.27;9.87;;;;;;;-1.33;100.00;101474.78;5000450;28;20037;-72
2023/01/21 04:09:27;;;;;;;28.40;9.17;;;;;;;-1.29;100.00;101471.53;4999550;28;20042;-72
2023/01/21 04:11:53;;;;;;;23.23;9.60;;;;;;;-1.29;100.00;101475.84;5002876;28;20053;-73
2023/01/21 04:14:18;;;;;;;30.53;10.43;;;;;;;-1.21;100.00;101490.13;4999946;28;20046;-72
2023/01/21 04:16:43;;;;;;;29.33;11.33;;;;;;;-1.29;100.00;101481.03;5009294;28;20072;-73
2023/01/21 04:19:08;;;;;;;29.27;12.67;;;;;;;-1.30;100.00;101474.94;5000848;28;20035;-73
2023/01/21 04:21:34;;;;;;;28.97;10.60;;;;;;;-1.26;100.00;101476.00;5002377;28;20037;-72
2023/01/21 04:23:59;;;;;;;31.47;10.70;;;;;;;-1.36;100.00;101477.22;5001879;28;20046;-72
2023/01/21 04:26:25;;;;;;;39.97;10.77;;;;;;;-1.36;100.00;101480.69;5003129;28;20038;-72
2023/01/21 04:28:50;;;;;;;27.77;10.23;;;;;;;-1.34;100.00;101481.66;5010970;28;20042;-73
2023/01/21 04:31:15;;;;;;;31.50;11.53;;;;;;;-1.29;100.00;101484.50;5005132;28;20045;-72
2023/01/21 04:33:41;;;;;;;30.30;10.20;;;;;;;-1.34;100.00;101484.25;5002086;28;20041;-72
2023/01/21 04:36:06;;;;;;;28.10;13.07;;;;;;;-1.28;100.00;101494.06;5003443;28;20608;-72
2023/01/21 04:38:32;;;;;;;34.53;10.00;;;;;;;-1.26;100.00;101496.72;5003748;28;20025;-72
2023/01/21 04:40:57;;;;;;;30.43;9.20;;;;;;;-1.28;100.00;101498.31;5003659;28;20074;-72
2023/01/21 04:43:22;;;;;;;28.47;9.47;;;;;;;-1.21;100.00;101500.47;5007859;28;20072;-73
2023/01/21 04:45:49;;;;;;;30.13;10.70;;;;;;;-1.09;100.00;101500.28;5002415;28;20082;-72
2023/01/21 04:48:15;;;;;;;28.77;10.33;;;;;;;-0.99;100.00;101500.00;5005808;28;20095;-73
2023/01/21 04:50:40;;;;;;;35.17;10.63;;;;;;;-0.98;100.00;101500.06;5008448;28;20376;-73
2023/01/21 04:53:05;;;;;;;33.27;11.03;;;;;;;-0.95;100.00;101497.66;5004410;28;20117;-72
2023/01/21 04:55:31;;;;;;;29.30;10.30;;;;;;;-1.03;100.00;101505.81;5004616;28;20088;-73
2023/01/21 04:57:56;;;;;;;27.10;10.37;;;;;;;-1.06;100.00;101503.94;5005455;28;20045;-73
2023/01/21 05:00:22;;;;;;;32.37;10.53;;;;;;;-0.95;100.00;101502.81;5005837;28;20392;-73
2023/01/21 05:02:48;;;;;;;34.87;11.53;;;;;;;-0.87;100.00;101505.84;5002982;28;20501;-73
2023/01/21 05:05:13;;;;;;;37.43;13.10;;;;;;;-0.91;100.00;101501.31;5006272;28;20033;-73
2023/01/21 05:07:38;;;;;;;37.27;10.47;;;;;;;-1.01;100.00;101507.69;5001124;28;20053;-73
2023/01/21 05:10:04;;;;;;;27.70;9.03;;;;;;;-1.05;100.00;101500.53;5003628;28;20034;-72
2023/01/21 05:12:29;;;;;;;32.23;8.80;;;;;;;-1.06;100.00;101493.56;5005067;28;20531;-73
2023/01/21 05:14:57;;;;;;;29.63;10.60;;;;;;;-0.93;100.00;101496.03;5006387;28;20042;-72
2023/01/21 05:17:23;;;;;;;28.50;8.93;;;;;;;-0.77;100.00;101496.88;5002327;28;20042;-72
2023/01/21 05:19:52;;;;;;;32.43;9.03;;;;;;;-0.68;100.00;101494.81;5006068;28;20045;-73
2023/01/21 05:22:17;;;;;;;24.30;9.50;;;;;;;-0.61;100.00;101490.84;5003556;28;20062;-72
2023/01/21 05:24:43;;;;;;;27.30;8.07;;;;;;;-0.62;100.00;101500.31;5004952;28;20139;-72
2023/01/21 05:27:08;;;;;;;29.53;9.13;;;;;;;-0.60;100.00;101501.31;5002011;28;20042;-72
2023/01/21 05:29:33;;;;;;;26.10;9.27;;;;;;;-0.53;100.00;101503.41;5017071;28;20513;-72
2023/01/21 05:31:59;;;;;;;21.97;9.23;;;;;;;-0.50;100.00;101506.19;5023332;28;20408;-72
2023/01/21 05:34:24;;;;;;;28.90;9.07;;;;;;;-0.48;100.00;101507.13;5003370;28;20078;-72
2023/01/21 05:36:49;;;;;;;24.20;8.43;;;;;;;-0.43;100.00;101506.50;5004170;28;20096;-72
2023/01/21 05:39:15;;;;;;;27.07;8.40;;;;;;;-0.49;100.00;101502.78;5001455;28;20042;-72
2023/01/21 05:41:40;;;;;;;24.40;7.47;;;;;;;-0.39;100.00;101503.25;5004604;28;20164;-72
2023/01/21 05:44:10;;;;;;;27.03;9.07;;;;;;;-0.30;100.00;101508.94;5001867;28;20504;-72
2023/01/21 05:46:35;;;;;;;24.00;8.87;;;;;;;-0.28;100.00;101502.16;5005052;28;20041;-72
2023/01/21 05:49:00;;;;;;;24.23;7.93;;;;;;;-0.32;100.00;101502.78;5004899;28;20037;-72
2023/01/21 05:51:26;;;;;;;24.43;8.10;;;;;;;-0.30;100.00;101511.53;5005712;28;20030;-73
2023/01/21 05:53:51;;;;;;;26.20;8.37;;;;;;;-0.31;100.00;101512.38;5006379;28;20041;-73
2023/01/21 05:56:16;;;;;;;26.40;11.20;;;;;;;-0.34;100.00;101514.75;5010443;28;20046;-73
2023/01/21 05:58:42;;;;;;;19.57;7.90;;;;;;;-0.47;100.00;101510.66;5008727;28;20444;-72
2023/01/21 06:01:07;;;;;;;21.00;7.17;;;;;;;-0.49;100.00;101510.56;5008032;28;20489;-73
2023/01/21 06:03:33;;;;;;;22.47;7.27;;;;;;;-0.39;100.00;101517.13;5008659;28;20045;-73
2023/01/21 06:05:58;;;;;;;26.27;8.03;;;;;;;-0.33;100.00;101513.97;5002356;28;20033;-74
2023/01/21 06:08:23;;;;;;;17.90;6.87;;;;;;;-0.32;100.00;101514.03;5004973;28;20120;-73
2023/01/21 06:10:49;;;;;;;26.67;7.70;;;;;;;-0.33;100.00;101516.56;5008601;28;20120;-72
2023/01/21 06:13:15;;;;;;;24.17;8.10;;;;;;;-0.37;100.00;101517.19;5005221;28;20039;-73
2023/01/21 06:15:41;;;;;;;19.73;6.27;;;;;;;-0.28;100.00;101513.41;4999150;28;20049;-73
2023/01/21 06:18:06;;;;;;;21.83;7.60;;;;;;;-0.31;100.00;101515.84;5003437;28;20034;-73
2023/01/21 06:20:32;;;;;;;20.90;8.03;;;;;;;-0.27;100.00;101519.47;5005055;28;20044;-73
2023/01/21 06:23:00;;;;;;;22.37;7.43;;;;;;;-0.28;100.00;101525.50;5007243;28;20034;-72
2023/01/21 06:25:26;;;;;;;19.47;6.33;;;;;;;-0.22;100.00;101523.22;5005715;28;20116;-73
2023/01/21 06:27:54;;;;;;;22.17;8.10;;;;;;;-0.14;100.00;101527.09;5000491;28;20129;-73
2023/01/21 06:30:21;;;;;;;22.03;7.60;;;;;;;-0.01;100.00;101533.84;5003522;28;20033;-73
2023/01/21 06:32:46;;;;;;;19.23;6.80;;;;;;;-0.05;100.00;101531.91;5002465;28;20117;-73
2023/01/21 06:35:11;;;;;;;17.40;7.40;;;;;;;-0.05;100.00;101525.00;5002051;28;20141;-73
2023/01/21 06:37:37;;;;;;;22.40;7.53;;;;;;;-0.14;100.00;101537.47;5001584;28;20042;-72
2023/01/21 06:40:03;;;;;;;23.30;7.60;;;;;;;-0.15;100.00;101534.81;5001007;28;20065;-73
2023/01/21 06:42:28;;;;;;;13.70;6.03;;;;;;;-0.07;100.00;101533.53;5001020;28;20038;-73
2023/01/21 06:44:53;;;;;;;15.40;5.07;;;;;;;-0.03;100.00;101536.38;5003749;28;20540;-72
2023/01/21 06:47:19;;;;;;;18.00;7.67;;;;;;;0.01;100.00;101532.22;5002481;28;20052;-73
2023/01/21 06:49:44;;;;;;;19.80;8.07;;;;;;;0.02;100.00;101533.09;5002253;28;20404;-73
2023/01/21 06:52:09;;;;;;;17.20;6.50;;;;;;;-0.04;100.00;101531.97;5002767;28;20392;-73
2023/01/21 06:54:35;;;;;;;13.70;6.43;;;;;;;-0.02;100.00;101527.75;5007794;28;20468;-73
2023/01/21 06:57:00;;;;;;;15.33;6.57;;;;;;;-0.05;100.00;101532.78;5003314;28;20524;-73
2023/01/21 06:59:25;;;;;;;18.00;6.13;;;;;;;-0.18;100.00;101532.97;5006343;28;20048;-73
2023/01/21 07:01:51;;;;;;;22.70;7.13;;;;;;;-0.30;100.00;101548.75;5003912;28;20030;-73
2023/01/21 07:04:16;;;;;;;15.87;6.00;;;;;;;-0.28;100.00;101536.75;5003843;28;20405;-73
2023/01/21 07:06:41;;;;;;;21.77;6.23;;;;;;;-0.27;100.00;101537.63;5006105;28;20045;-73
2023/01/21 07:09:07;;;;;;;19.63;7.00;;;;;;;-0.23;100.00;101547.38;5004770;28;20045;-73
2023/01/21 07:11:33;;;;;;;18.07;6.80;;;;;;;-0.29;100.00;101539.25;5006437;28;20062;-73
2023/01/21 07:13:59;;;;;;;17.90;5.70;;;;;;;-0.23;100.00;101542.19;5001687;28;20136;-73
2023/01/21 07:16:24;;;;;;;21.47;6.07;;;;;;;-0.20;100.00;101539.75;5003230;28;20109;-73
2023/01/21 07:18:50;;;;;;;21.30;7.80;;;;;;;-0.17;100.00;101537.31;5007429;28;20041;-73
2023/01/21 07:21:15;;;;;;;19.13;6.70;;;;;;;-0.19;100.00;101533.75;5006333;28;20506;-73
2023/01/21 07:23:40;;;;;;;17.63;7.80;;;;;;;-0.20;100.00;101544.06;5006160;28;20072;-73
2023/01/21 07:26:06;;;;;;;28.73;12.80;;;;;;;-0.24;100.00;101540.38;5005579;28;20058;-73
2023/01/21 07:28:32;;;;;;;27.10;13.57;;;;;;;-0.25;100.00;101552.47;5008542;28;20444;-72
2023/01/21 07:31:02;;;;;;;30.30;12.70;;;;;;;-0.18;100.00;101550.19;5004973;28;20042;-73
2023/01/21 07:33:28;;;;;;;25.83;9.60;;;;;;;-0.14;100.00;101552.16;5005158;28;20405;-73
2023/01/21 07:35:53;;;;;;;24.53;8.50;;;;;;;-0.13;100.00;101557.44;5001709;28;20049;-73
2023/01/21 07:38:19;;;;;;;21.67;9.73;;;;;;;-0.04;100.00;101550.13;5005988;28;20045;-73
2023/01/21 07:40:48;;;;;;;22.17;9.23;;;;;;;-0.01;100.00;101546.81;5007026;28;20038;-73
2023/01/21 07:43:13;;;;;;;23.70;10.00;;;;;;;0.07;100.00;101557.59;5008149;28;20026;-73
2023/01/21 07:45:39;;;;;;;23.17;10.37;;;;;;;0.02;100.00;101553.88;5001526;28;20378;-73
2023/01/21 07:48:04;;;;;;;26.73;11.00;;;;;;;0.04;100.00;101557.44;5001680;28;20130;-73
2023/01/21 07:50:30;;;;;;;23.37;10.17;;;;;;;-0.02;100.00;101555.41;5004565;28;20057;-73
2023/01/21 07:52:55;;;;;;;21.93;10.03;;;;;;;-0.04;100.00;101559.63;5000093;28;20066;-73
2023/01/21 07:55:21;;;;;;;24.73;10.17;;;;;;;-0.12;100.00;101553.16;5002623;28;20052;-73
2023/01/21 07:57:46;;;;;;;25.47;10.97;;;;;;;-0.03;100.00;101557.13;4999957;28;20030;-73
2023/01/21 08:00:12;;;;;;;20.53;10.13;;;;;;;0.01;100.00;101552.09;5005991;28;20041;-73
2023/01/21 08:02:39;;;;;;;18.67;8.93;;;;;;;0.11;100.00;101550.06;5003178;28;20439;-73
2023/01/21 08:05:06;;;;;;;21.80;10.07;;;;;;;0.10;100.00;101543.06;5005502;28;20374;-73
2023/01/21 08:07:31;;;;;;;22.53;10.30;;;;;;;0.10;100.00;101529.19;4999349;28;20053;-73
2023/01/21 08:09:57;;;;;;;27.33;10.27;;;;;;;0.21;100.00;101534.16;5007288;28;20049;-72
2023/01/21 08:12:22;;;;;;;24.80;8.97;;;;;;;0.20;100.00;101531.47;5017061;28;20077;-73
2023/01/21 08:14:47;;;;;;;21.13;10.17;;;;;;;0.21;100.00;101536.75;5009563;28;20069;-73
2023/01/21 08:17:12;;;;;;;19.03;9.27;;;;;;;0.19;100.00;101533.16;5004650;28;20045;-72
2023/01/21 08:19:38;;;;;;;18.37;5.60;;;;;;;0.17;100.00;101533.91;5008907;28;20062;-72
2023/01/21 08:22:03;;;;;;;14.33;8.70;;;;;;;0.19;100.00;101533.16;5001781;28;20042;-73
2023/01/21 08:24:28;;;;;;;14.93;7.07;;;;;;;0.36;100.00;101539.22;5007999;28;20048;-73
2023/01/21 08:26:58;;;;;;;13.33;6.00;;;;;;;0.32;100.00;101539.91;5002758;28;20038;-73
2023/01/21 08:29:24;;;;;;;497.23;48.97;;;;;;;0.26;100.00;101543.88;5010063;28;20068;-73
2023/01/21 08:31:49;;;;;;;24.90;11.70;;;;;;;0.37;100.00;101543.63;5007082;28;20061;-73
2023/01/21 08:34:16;;;;;;;22.13;11.17;;;;;;;0.33;100.00;101545.97;5005432;28;20041;-73
2023/01/21 08:36:41;;;;;;;21.80;11.43;;;;;;;0.19;100.00;101540.06;5007171;28;20120;-73
2023/01/21 08:39:08;;;;;;;25.87;11.10;;;;;;;0.27;100.00;101551.75;5009396;28;20141;-73
2023/01/21 08:41:33;;;;;;;21.53;12.67;;;;;;;0.21;100.00;101543.66;5006371;28;20038;-73
2023/01/21 08:43:59;;;;;;;21.33;11.07;;;;;;;0.32;100.00;101545.09;5005052;28;20053;-73
2023/01/21 08:46:24;;;;;;;24.83;11.97;;;;;;;0.36;100.00;101541.81;5004285;28;20408;-73
2023/01/21 08:48:50;;;;;;;21.33;10.73;;;;;;;0.46;100.00;101542.31;5006670;28;20042;-73
2023/01/21 08:51:15;;;;;;;20.20;11.60;;;;;;;0.59;100.00;101547.31;5004813;28;20034;-73
2023/01/21 08:53:41;;;;;;;22.17;11.73;;;;;;;0.56;100.00;101539.38;5006130;28;20116;-73
2023/01/21 08:56:06;;;;;;;19.37;10.50;;;;;;;0.49;100.00;101545.06;5002629;28;20038;-73
2023/01/21 08:58:32;;;;;;;20.80;11.50;;;;;;;0.48;100.00;101541.56;5006011;28;20041;-73
2023/01/21 09:00:58;;;;;;;25.13;11.80;;;;;;;0.58;100.00;101545.53;5008037;28;20037;-73
2023/01/21 09:03:24;;;;;;;22.83;11.63;;;;;;;0.77;100.00;101534.34;5004731;28;20073;-73
2023/01/21 09:05:53;;;;;;;20.33;11.40;;;;;;;0.70;100.00;101538.31;5008064;28;20057;-73
2023/01/21 09:08:18;;;;;;;23.47;11.27;;;;;;;0.60;100.00;101542.19;5010911;28;20112;-73
2023/01/21 09:11:02;;;;;;;19.63;11.23;;;;;;;0.76;100.00;101546.44;5010270;28;20124;-73
2023/01/21 09:13:29;;;;;;;18.38;10.45;;;;;;;0.77;100.00;101555.13;5010255;28;20034;-72
2023/01/21 09:15:54;;;;;;;24.67;11.07;;;;;;;0.72;100.00;101547.09;5005658;28;20121;-73
2023/01/21 09:18:20;;;;;;;20.33;10.65;;;;;;;0.76;100.00;101545.53;5011619;28;20034;-73
2023/01/21 09:20:45;;;;;;;19.85;9.88;;;;;;;0.80;100.00;101545.78;5006933;28;20386;-73
2023/01/21 09:23:23;;;;;;;23.02;10.10;;;;;;;0.76;100.00;101549.06;5005176;28;20042;-73
2023/01/21 09:25:53;;;;;;;21.43;11.13;;;;;;;0.75;100.00;101556.75;5012246;28;20025;-73
2023/01/21 09:28:19;;;;;;;19.33;9.87;;;;;;;0.80;100.00;101556.16;5012929;28;20048;-73
2023/01/21 09:30:45;;;;;;;21.00;11.23;;;;;;;0.76;100.00;101549.06;5011825;28;20116;-73
2023/01/21 09:33:12;;;;;;;19.60;10.10;;;;;;;0.91;100.00;101553.22;5011576;28;20643;-73
2023/01/21 09:35:37;;;;;;;18.80;10.17;;;;;;;0.88;100.00;101544.44;5008185;28;20559;-73
2023/01/21 09:38:02;;;;;;;21.23;10.40;;;;;;;0.81;100.00;101546.66;5011312;28;20034;-73
2023/01/21 09:40:28;;;;;;;17.98;10.30;;;;;;;0.80;100.00;101550.97;5011697;28;20041;-73
2023/01/21 09:42:53;;;;;;;19.42;10.85;;;;;;;0.82;100.00;101556.25;5010608;28;20045;-73
2023/01/21 09:45:20;;;;;;;21.43;10.40;;;;;;;0.75;100.00;101562.84;5010306;28;20037;-73
2023/01/21 09:47:48;;;;;;;17.17;9.40;;;;;;;0.75;100.00;101565.44;5011188;28;20044;-73
2023/01/21 09:50:23;;;;;;;17.37;10.13;;;;;;;0.79;100.00;101559.59;5011566;28;20125;-73
2023/01/21 09:52:52;;;;;;;16.80;8.77;;;;;;;0.72;100.00;101548.81;5010649;28;20042;-73
2023/01/21 09:55:27;;;;;;;16.90;9.63;;;;;;;0.71;100.00;101545.31;5009652;28;20648;-73
2023/01/21 09:57:58;;;;;;;19.30;10.00;;;;;;;0.78;100.00;101555.19;5010953;28;20486;-73
2023/01/21 10:01:07;;;;;;;19.57;10.17;;;;;;;0.70;100.00;101553.91;5010707;28;20113;-73
2023/01/21 10:04:11;;;;;;;18.37;10.43;;;;;;;0.84;100.00;101552.03;4990599;28;20057;-73
2023/01/21 10:06:49;;;;;;;18.83;9.73;;;;;;;0.92;100.00;101552.38;4976918;28;20046;-73
2023/01/21 10:09:32;;;;;;;14.97;8.70;;;;;;;0.73;100.00;101540.19;5010816;28;20029;-73
2023/01/21 10:12:15;;;;;;;16.90;9.50;;;;;;;0.77;100.00;101545.63;5010230;28;20481;-73
2023/01/21 10:14:40;;;;;;;19.15;9.93;;;;;;;0.76;100.00;101556.84;5008659;28;20088;-73
2023/01/21 10:17:19;;;;;;;18.80;9.37;;;;;;;0.73;100.00;101548.88;5009712;28;20034;-73
2023/01/21 10:19:51;;;;;;;16.60;9.32;;;;;;;0.82;100.00;101538.94;5009535;28;20562;-73
2023/01/21 10:22:20;;;;;;;17.00;9.82;;;;;;;0.79;100.00;101536.19;5008046;28;20432;-73
2023/01/21 10:24:52;;;;;;;18.27;8.70;;;;;;;0.77;100.00;101539.53;5010282;28;20052;-73
2023/01/21 10:27:20;;;;;;;16.45;8.93;;;;;;;0.81;100.00;101529.38;5009343;28;20510;-73
2023/01/21 10:29:52;;;;;;;14.80;8.93;;;;;;;0.94;100.00;101527.34;5011126;28;20100;-73
2023/01/21 10:32:23;;;;;;;15.77;10.00;;;;;;;1.00;100.00;101525.06;5008918;28;20032;-73
2023/01/21 10:34:56;;;;;;;16.27;9.63;;;;;;;1.00;100.00;101530.28;5004255;28;20496;-73
2023/01/21 10:37:31;;;;;;;16.27;8.88;;;;;;;1.14;100.00;101518.81;5010674;28;20073;-73
2023/01/21 10:40:16;;;;;;;15.50;8.15;;;;;;;1.27;100.00;101517.69;5008609;28;20061;-73
2023/01/21 10:43:02;;;;;;;17.42;9.10;;;;;;;1.30;100.00;101512.63;5003549;28;20444;-73
2023/01/21 10:45:36;;;;;;;12.90;7.07;;;;;;;1.35;100.00;101516.34;5002413;28;20037;-73
2023/01/21 10:48:11;;;;;;;13.27;7.50;;;;;;;1.24;100.00;101523.66;5001030;28;20044;-73
2023/01/21 10:50:59;;;;;;;16.63;9.27;;;;;;;1.28;100.00;101520.38;5009756;28;20074;-73
2023/01/21 10:53:47;;;;;;;14.25;8.38;;;;;;;1.28;100.00;101516.88;5002544;28;20030;-73
2023/01/21 10:56:23;;;;;;;15.80;8.38;;;;;;;1.42;100.00;101508.00;5001844;28;20050;-73
2023/01/21 10:59:04;;;;;;;15.48;9.73;;;;;;;1.40;100.00;101507.03;5001785;28;20042;-73
2023/01/21 11:01:35;;;;;;;11.93;7.40;;;;;;;1.38;100.00;101515.59;5006639;28;20416;-73
2023/01/21 11:04:10;;;;;;;14.25;8.18;;;;;;;1.40;100.00;101498.34;5002513;28;20042;-73
2023/01/21 11:06:37;;;;;;;14.75;7.75;;;;;;;1.37;100.00;101499.09;5007269;28;20041;-74
2023/01/21 11:09:05;;;;;;;15.63;7.78;;;;;;;1.44;100.00;101495.06;5008902;28;20040;-73
2023/01/21 11:11:34;;;;;;;14.27;8.25;;;;;;;1.39;100.00;101496.56;5007768;28;20038;-74
2023/01/21 11:14:00;;;;;;;18.92;9.13;;;;;;;1.39;100.00;101483.56;5002489;28;20053;-74
2023/01/21 11:16:47;;;;;;;14.98;8.38;;;;;;;1.49;100.00;101483.16;5001477;28;20042;-73
2023/01/21 11:19:20;;;;;;;17.83;8.75;;;;;;;1.59;100.00;101482.75;5005484;28;20121;-74
2023/01/21 11:22:19;;;;;;;13.10;7.38;;;;;;;1.63;100.00;101478.59;5010458;28;20030;-73